This is the latest recevied weather packets stored in our database for station/object F5ZVO. If no packets are shown the sender has not sent any weather packets the latest 10 day(s).
| Time | Temp. | Humidity | Pressure | Rain* | Wind** | Luminosity | Snow |
|---|---|---|---|---|---|---|---|
| 1788082206 | 17.78° C | 40% | 1019.9 hPa | 0 mm | 5.36 m/s, 207° | - | - |
| 1788080403 | 17.22° C | 40% | 1019.7 hPa | 0 mm | 5.36 m/s, 205° | - | - |
| 1788078606 | 17.22° C | 40% | 1019.7 hPa | 0 mm | 5.36 m/s, 203° | - | - |
| 1788076805 | 16.67° C | 41% | 1019.7 hPa | 0 mm | 5.36 m/s, 199° | - | - |
| 1788075008 | 16.11° C | 42% | 1019.4 hPa | 0 mm | 4.47 m/s, 200° | - | - |
| 1788073203 | 15.56° C | 43% | 1019.4 hPa | 0 mm | 4.47 m/s, 197° | - | - |
| 1788071406 | 15° C | 47% | 1019.6 hPa | 0 mm | 4.47 m/s, 195° | - | - |
| 1788069607 | 14.44° C | 49% | 1019.7 hPa | 0 mm | 4.47 m/s, 195° | - | - |
| 1788067806 | 12.78° C | 53% | 1020 hPa | 0 mm | 4.02 m/s, 196° | - | - |
| 1788064205 | 11.67° C | 58% | 1020.7 hPa | 0 mm | 3.13 m/s, 202° | - | - |
| 1788062402 | 11.67° C | 63% | 1020.8 hPa | 0 mm | 3.13 m/s, 210° | - | - |
| 1788060603 | 11.67° C | 60% | 1020.8 hPa | 0 mm | 2.68 m/s, 203° | - | - |
| 1788058808 | 11.67° C | 60% | 1020.6 hPa | 0 mm | 3.13 m/s, 206° | - | - |
| 1788057004 | 12.22° C | 52% | 1020 hPa | 0 mm | 3.58 m/s, 204° | - | - |
| 1788053406 | 11.11° C | 58% | 1020.3 hPa | 0 mm | 2.68 m/s, 207° | - | - |
| 1788051607 | 11.11° C | 62% | 1020.5 hPa | 0 mm | 2.24 m/s, 212° | - | - |
| 1788049803 | 11.11° C | 62% | 1020.4 hPa | 0 mm | 2.24 m/s, 210° | - | - |
| 1788048005 | 10.56° C | 67% | 1020.9 hPa | 0 mm | 1.34 m/s, 218° | - | - |
| 1788046205 | 11.11° C | 66% | 1020.8 hPa | 0 mm | 1.79 m/s, 223° | - | - |
| 1788044403 | 10.56° C | 68% | 1021.5 hPa | 0 mm | 1.34 m/s, 231° | - | - |
| 1788043841 | 11.11° C | 67% | 1021.6 hPa | 0 mm | 0.89 m/s, 256° | - | - |
* Rain latest hour (hover to see other rain measurements)
** Current wind speed in m/s (hover to see current wind gust speed)